Airfield :
LOGIN :

Register | Disclaimer

   EN    FR    IT 

 










Legend :    VFR   Marginal VFR   IFR   Intensive IFR   Very Intensive IFR
Visi :
Ceiling :
>= 8 km
>= 3000ft
5 to 8 km
1000 to 3000 ft
1500m to 5 km
500 to 1000 ft
800 to 1500m
200 to 500 ft
< 800m
< 200 ft
Symbols :   Thunderstorms  Fog  Heavy snow  Heavy precipitations  Wind > 20 kt
SIGMETs :     Misc.  Thunderstorms  Icing  Turbulence  Mountain Waves  Volcanic Ashes






- Airport Elevation : 15 ft
- IATA code : BHD


EGAC - George Best Belfast City

CURRENT METAR :
  • 151350Z AUTO 12006KT 060V210 9999 FEW032 20/11 Q1008

EXPIRED METARs :
  • 151320Z AUTO 14005KT 080V220 9999 SCT032 20/11 Q1008
  • 151250Z AUTO 16007KT 120V220 9999 NCD 20/11 Q1008
  • 151220Z AUTO 14006KT 070V190 9999 FEW028 19/12 Q1008
  • 151150Z AUTO 18006KT 140V240 9999 SCT030 19/11 Q1008
  • 151120Z AUTO 18008KT 9999 SCT029 19/12 Q1008
  • 151050Z AUTO VRB06KT 9999 FEW022 BKN029 BKN033 18/11 Q1008
  • 151020Z AUTO 03007KT 360V060 9999 BKN024 BKN030 18/12 Q1008
  • 150950Z AUTO 05005KT 020V100 9999 FEW025 18/12 Q1008
  • 150920Z AUTO 02004KT 310V050 9999 FEW023 17/13 Q1009

TAF TAF EGAC
Valid from the 15 at 12:00 until the 15 at 21:00 UTC


151101Z 1512/1521 15005KT 9999 SCT025
ATIS : +44 02890 935 124



MET'MAP, your aeronautical weather chart ! - Copyright ORBIFLY December 2007 - Disclaimer

ORBIFLY MET'MAP TEAM :

Programming & Development : Alexandra Zaïnal
Original concept : Baudouin d'Aumeries
Technical & hardware support : Manuel Goepfert
Assistance : Marc-Olivier Méhu




SOURCES & CREDITS :

   NOAA